createdAt,value
2022-09-01T00:00:13.773Z,16.10
2022-09-01T00:02:43.346Z,15.27
2022-09-01T00:05:12.908Z,15.33
2022-09-01T00:07:42.244Z,15.57
2022-09-01T00:10:11.114Z,15.97
2022-09-01T00:12:39.938Z,14.93
2022-09-01T00:15:10.015Z,14.43
2022-09-01T00:17:37.946Z,15.17
2022-09-01T00:20:07.008Z,14.27
2022-09-01T00:22:34.947Z,15.37
2022-09-01T00:25:04.885Z,15.27
2022-09-01T00:27:32.950Z,15.50
2022-09-01T00:30:01.456Z,14.97
2022-09-01T00:32:29.991Z,15.73
2022-09-01T00:34:57.902Z,15.07
2022-09-01T00:37:26.062Z,16.13
2022-09-01T00:39:53.977Z,16.47
2022-09-01T00:42:23.285Z,16.43
2022-09-01T00:44:51.210Z,15.90
2022-09-01T00:47:19.160Z,15.43
2022-09-01T00:49:50.202Z,15.43
2022-09-01T00:52:21.999Z,16.20
2022-09-01T00:54:53.745Z,15.83
2022-09-01T00:57:23.440Z,15.73
2022-09-01T00:59:55.991Z,16.03
2022-09-01T01:02:24.391Z,15.63
2022-09-01T01:04:52.890Z,16.43
2022-09-01T01:07:23.002Z,15.67
2022-09-01T01:09:52.405Z,16.37
2022-09-01T01:12:21.604Z,16.30
2022-09-01T01:14:52.055Z,16.93
2022-09-01T01:17:20.793Z,17.00
2022-09-01T01:20:09.599Z,17.17
2022-09-01T01:23:03.446Z,16.30
2022-09-01T01:25:35.559Z,16.77
2022-09-01T01:28:09.299Z,17.23
2022-09-01T01:30:39.730Z,16.73
2022-09-01T01:33:08.303Z,17.07
2022-09-01T01:35:36.780Z,17.80
2022-09-01T01:38:08.074Z,18.47
2022-09-01T01:40:38.801Z,18.67
2022-09-01T01:43:06.968Z,18.53
2022-09-01T01:45:35.525Z,19.90
2022-09-01T01:48:06.109Z,20.87
2022-09-01T01:50:35.773Z,19.97
2022-09-01T01:53:10.904Z,20.77
2022-09-01T01:55:41.881Z,20.47
2022-09-01T01:58:12.287Z,20.73
2022-09-01T02:00:44.709Z,21.00
2022-09-01T02:03:17.260Z,20.90
2022-09-01T02:05:45.744Z,19.30
2022-09-01T02:08:15.661Z,17.93
2022-09-01T02:10:47.364Z,18.37
2022-09-01T02:13:17.831Z,17.50
2022-09-01T02:15:48.083Z,18.23
2022-09-01T02:18:18.193Z,19.40
2022-09-01T02:20:49.463Z,20.10
2022-09-01T02:23:20.216Z,19.90
2022-09-01T02:26:14.531Z,19.53
2022-09-01T02:28:40.079Z,18.63
2022-09-01T02:31:08.975Z,18.73
2022-09-01T02:33:38.441Z,18.80
2022-09-01T02:36:10.371Z,17.17
2022-09-01T02:38:42.943Z,19.43
2022-09-01T02:41:23.147Z,19.00
2022-09-01T02:43:51.681Z,18.13
2022-09-01T02:46:24.376Z,18.53
2022-09-01T02:48:53.231Z,18.73
2022-09-01T02:51:25.573Z,18.60
2022-09-01T02:53:55.105Z,19.97
2022-09-01T02:56:27.464Z,18.40
2022-09-01T02:58:56.550Z,18.93
2022-09-01T03:01:27.299Z,19.80
2022-09-01T03:03:58.603Z,19.17
2022-09-01T03:06:28.178Z,18.67
2022-09-01T03:08:59.688Z,19.57
2022-09-01T03:11:30.538Z,18.93
2022-09-01T03:13:59.053Z,19.40
2022-09-01T03:16:26.986Z,20.03
2022-09-01T03:18:54.917Z,20.97
2022-09-01T03:21:23.372Z,22.57
2022-09-01T03:23:52.652Z,22.33
2022-09-01T03:26:22.597Z,22.40
2022-09-01T03:28:52.889Z,22.40
2022-09-01T03:31:22.120Z,23.33
2022-09-01T03:33:51.098Z,24.43
2022-09-01T03:36:20.262Z,26.07
2022-09-01T03:38:49.729Z,27.00
2022-09-01T03:41:19.628Z,26.50
2022-09-01T03:43:48.407Z,29.47
2022-09-01T03:46:21.772Z,28.13
2022-09-01T03:48:51.799Z,28.67
2022-09-01T03:51:22.688Z,29.40
2022-09-01T03:53:54.545Z,31.30
2022-09-01T03:56:26.341Z,29.10
2022-09-01T03:58:56.269Z,30.17
2022-09-01T04:01:26.661Z,30.03
2022-09-01T04:03:54.742Z,30.50
2022-09-01T04:06:24.227Z,32.13
2022-09-01T04:09:02.890Z,33.30
2022-09-01T04:11:32.450Z,34.20
2022-09-01T04:14:01.282Z,35.17
2022-09-01T04:16:51.096Z,35.20
2022-09-01T04:19:25.847Z,36.17
2022-09-01T04:21:55.788Z,33.17
2022-09-01T04:24:28.015Z,35.83
2022-09-01T04:26:58.705Z,35.27
2022-09-01T04:29:28.311Z,34.37
2022-09-01T04:32:02.227Z,36.10
2022-09-01T04:34:37.288Z,36.57
2022-09-01T04:37:09.927Z,36.37
2022-09-01T04:39:39.237Z,34.07
2022-09-01T04:42:09.269Z,34.90
2022-09-01T04:44:37.985Z,34.73
2022-09-01T04:47:10.943Z,35.20
2022-09-01T04:49:39.067Z,31.80
2022-09-01T04:52:07.335Z,33.13
2022-09-01T04:54:37.425Z,31.23
2022-09-01T04:57:07.050Z,31.60
2022-09-01T04:59:35.939Z,30.87
2022-09-01T05:02:09.661Z,30.77
2022-09-01T05:04:46.488Z,33.97
2022-09-01T05:07:16.182Z,32.20
2022-09-01T05:09:45.572Z,30.67
2022-09-01T05:12:16.100Z,33.10
2022-09-01T05:14:48.432Z,32.57
2022-09-01T05:17:17.614Z,31.57
2022-09-01T05:19:50.623Z,30.87
2022-09-01T05:22:22.017Z,31.37
2022-09-01T05:24:51.491Z,29.90
2022-09-01T05:27:23.282Z,28.63
2022-09-01T05:29:54.199Z,29.77
2022-09-01T05:32:26.109Z,29.57
2022-09-01T05:34:55.480Z,31.37
2022-09-01T05:37:23.510Z,29.80
2022-09-01T05:39:52.468Z,30.37
2022-09-01T05:42:20.382Z,31.60
2022-09-01T05:44:48.345Z,33.37
2022-09-01T05:47:21.922Z,33.43
2022-09-01T05:49:50.866Z,35.90
2022-09-01T05:52:24.981Z,32.93
2022-09-01T05:54:54.105Z,35.20
2022-09-01T05:57:34.461Z,35.37
2022-09-01T06:00:10.994Z,34.40
2022-09-01T06:02:40.004Z,35.03
2022-09-01T06:05:09.329Z,29.57
2022-09-01T06:07:40.896Z,29.87
2022-09-01T06:10:09.625Z,33.33
2022-09-01T06:12:37.877Z,32.37
2022-09-01T06:15:15.898Z,31.97
2022-09-01T06:17:46.385Z,32.63
2022-09-01T06:20:19.095Z,30.70
2022-09-01T06:22:48.996Z,29.33
2022-09-01T06:25:18.768Z,29.73
2022-09-01T06:27:48.315Z,28.70
2022-09-01T06:30:23.793Z,30.10
2022-09-01T06:32:52.663Z,31.60
2022-09-01T06:35:24.041Z,33.47
2022-09-01T06:37:53.598Z,32.07
2022-09-01T06:40:21.851Z,31.13
2022-09-01T06:42:52.418Z,29.35
2022-09-01T06:45:22.543Z,27.08
2022-09-01T06:47:57.695Z,28.02
2022-09-01T06:53:37.314Z,28.50
2022-09-01T06:56:08.207Z,26.30
2022-09-01T06:58:37.027Z,27.70
2022-09-01T07:01:08.303Z,25.90
2022-09-01T07:03:37.197Z,25.88
2022-09-01T07:06:09.583Z,30.25
2022-09-01T07:14:19.309Z,25.33
2022-09-01T07:16:51.934Z,27.17
2022-09-01T07:19:21.119Z,25.52
2022-09-01T07:22:07.377Z,26.52
2022-09-01T07:24:37.046Z,26.77
2022-09-01T07:27:09.553Z,27.27
2022-09-01T07:29:39.351Z,26.75
2022-09-01T07:35:00.107Z,27.20
2022-09-01T07:43:09.897Z,28.63
2022-09-01T07:45:47.230Z,28.90
2022-09-01T07:49:02.509Z,27.77
2022-09-01T07:54:02.417Z,29.70
2022-09-01T07:56:34.205Z,30.92
2022-09-01T07:59:04.499Z,29.65
2022-09-01T08:01:32.465Z,28.58
2022-09-01T08:04:02.965Z,28.90
2022-09-01T08:06:38.547Z,29.52
2022-09-01T08:09:11.503Z,31.40
2022-09-01T08:14:33.775Z,28.33
2022-09-01T08:17:16.735Z,27.23
2022-09-01T08:19:47.036Z,28.88
2022-09-01T08:22:15.101Z,28.08
2022-09-01T08:24:43.897Z,26.92
2022-09-01T08:27:13.585Z,29.83
2022-09-01T08:29:42.192Z,28.15
2022-09-01T08:32:11.331Z,27.35
2022-09-01T08:34:39.829Z,27.10
2022-09-01T08:37:08.074Z,28.13
2022-09-01T08:39:35.989Z,27.05
2022-09-01T08:42:12.346Z,26.67
2022-09-01T08:44:51.064Z,25.58
2022-09-01T08:47:35.555Z,26.95
2022-09-01T08:50:09.116Z,24.55
2022-09-01T08:52:41.288Z,27.65
2022-09-01T08:55:17.508Z,26.55
2022-09-01T08:57:48.099Z,26.40
2022-09-01T09:00:20.080Z,24.83
2022-09-01T09:03:08.827Z,25.83
2022-09-01T09:05:58.787Z,26.50
2022-09-01T09:08:48.038Z,23.45
2022-09-01T09:11:34.261Z,23.30
2022-09-01T09:14:12.372Z,20.98
2022-09-01T09:16:43.788Z,19.63
2022-09-01T09:19:21.753Z,17.20
2022-09-01T09:21:55.493Z,17.15
2022-09-01T09:24:38.606Z,16.05
2022-09-01T09:27:09.656Z,16.40
2022-09-01T09:29:38.966Z,15.90
2022-09-01T09:34:59.545Z,15.73
2022-09-01T09:37:30.387Z,15.85
2022-09-01T09:40:15.239Z,16.52
2022-09-01T09:43:01.583Z,15.55
2022-09-01T09:45:33.914Z,15.95
2022-09-01T09:48:07.707Z,14.57
2022-09-01T09:50:40.475Z,15.48
2022-09-01T09:53:17.229Z,14.80
2022-09-01T09:55:58.594Z,14.70
2022-09-01T09:58:35.039Z,13.85
2022-09-01T10:01:06.798Z,13.75
2022-09-01T10:03:43.216Z,12.52
2022-09-01T10:06:17.781Z,13.15
2022-09-01T10:08:48.063Z,12.65
2022-09-01T10:11:35.535Z,12.75
2022-09-01T10:14:07.245Z,13.15
2022-09-01T10:16:38.813Z,13.15
2022-09-01T10:19:12.707Z,12.70
2022-09-01T10:21:42.815Z,13.55
2022-09-01T10:24:22.341Z,13.23
2022-09-01T10:26:58.304Z,14.73
2022-09-01T10:29:34.779Z,12.55
2022-09-01T10:32:30.490Z,13.05
2022-09-01T10:34:59.795Z,12.90
2022-09-01T10:37:28.411Z,11.90
2022-09-01T10:40:20.651Z,12.48
2022-09-01T10:42:55.338Z,12.18
2022-09-01T10:45:35.646Z,12.07
2022-09-01T10:48:31.905Z,13.52
2022-09-01T10:51:50.572Z,12.45
2022-09-01T10:55:00.760Z,12.68
2022-09-01T10:57:42.946Z,12.98
2022-09-01T11:01:10.576Z,11.32
2022-09-01T11:03:54.270Z,12.55
2022-09-01T11:07:12.249Z,12.82
2022-09-01T11:09:42.753Z,13.13
2022-09-01T11:12:34.096Z,11.27
2022-09-01T11:15:04.680Z,11.13
2022-09-01T11:17:39.120Z,12.05
2022-09-01T11:20:10.272Z,10.75
2022-09-01T11:22:41.607Z,10.75
2022-09-01T11:25:39.262Z,11.82
2022-09-01T11:28:46.673Z,12.57
2022-09-01T11:31:43.003Z,11.55
2022-09-01T11:34:14.329Z,11.00
2022-09-01T11:36:58.960Z,10.65
2022-09-01T11:39:49.232Z,10.80
2022-09-01T11:42:22.794Z,10.55
2022-09-01T11:44:57.701Z,10.20
2022-09-01T11:47:30.196Z,10.70
2022-09-01T11:50:00.700Z,10.15
2022-09-01T11:52:32.001Z,10.65
2022-09-01T11:55:00.595Z,11.60
2022-09-01T11:57:32.182Z,12.20
2022-09-01T12:00:02.774Z,11.82
2022-09-01T12:02:36.554Z,9.25
2022-09-01T12:05:24.624Z,9.73
2022-09-01T12:07:53.548Z,10.75
2022-09-01T12:10:26.343Z,11.95
2022-09-01T12:13:03.549Z,12.02
2022-09-01T12:15:31.720Z,11.98
2022-09-01T12:18:15.998Z,12.45
2022-09-01T12:20:43.947Z,12.60
2022-09-01T12:23:24.074Z,13.00
2022-09-01T12:25:52.436Z,12.90
2022-09-01T12:28:20.447Z,12.75
2022-09-01T12:30:48.486Z,12.48
2022-09-01T12:33:23.945Z,12.55
2022-09-01T12:35:56.057Z,12.63
2022-09-01T12:38:30.752Z,13.40
2022-09-01T12:40:59.021Z,12.55
2022-09-01T12:43:33.465Z,13.68
2022-09-01T12:46:02.898Z,13.38
2022-09-01T12:48:35.254Z,13.57
2022-09-01T12:51:05.488Z,13.55
2022-09-01T12:53:36.928Z,12.95
2022-09-01T12:56:18.004Z,12.82
2022-09-01T12:58:53.947Z,13.82
2022-09-01T13:01:32.362Z,12.10
2022-09-01T13:04:29.857Z,14.73
2022-09-01T13:07:04.199Z,11.63
2022-09-01T13:09:32.125Z,12.00
2022-09-01T13:12:17.302Z,12.52
2022-09-01T13:14:45.200Z,14.73
2022-09-01T13:17:14.685Z,13.13
2022-09-01T13:19:44.245Z,12.07
2022-09-01T13:22:12.333Z,12.27
2022-09-01T13:24:40.507Z,13.50
2022-09-01T13:27:24.137Z,12.65
2022-09-01T13:29:52.432Z,12.38
2022-09-01T13:32:22.553Z,12.10
2022-09-01T13:34:53.890Z,12.77
2022-09-01T13:37:22.837Z,11.07
2022-09-01T13:39:51.339Z,11.45
2022-09-01T13:42:19.302Z,11.98
2022-09-01T13:44:49.556Z,11.85
2022-09-01T13:47:33.229Z,11.98
2022-09-01T13:50:08.229Z,11.93
2022-09-01T13:52:37.092Z,10.93
2022-09-01T13:55:05.972Z,11.88
2022-09-01T13:57:36.228Z,11.52
2022-09-01T14:00:07.910Z,11.90
2022-09-01T14:02:36.819Z,13.27
2022-09-01T14:05:07.103Z,13.02
2022-09-01T14:07:35.048Z,13.63
2022-09-01T14:10:03.221Z,12.50
2022-09-01T14:12:32.636Z,13.43
2022-09-01T14:15:18.043Z,13.15
2022-09-01T14:17:49.379Z,12.85
2022-09-01T14:20:20.892Z,12.98
2022-09-01T14:22:49.492Z,13.98
2022-09-01T14:25:19.315Z,13.40
2022-09-01T14:27:47.786Z,13.43
2022-09-01T14:30:18.632Z,12.98
2022-09-01T14:32:48.522Z,13.27
2022-09-01T14:35:19.461Z,13.30
2022-09-01T14:37:47.721Z,13.85
2022-09-01T14:40:18.264Z,13.80
2022-09-01T14:42:49.178Z,14.02
2022-09-01T14:45:18.621Z,14.05
2022-09-01T14:47:46.933Z,13.23
2022-09-01T14:50:19.901Z,14.98
2022-09-01T14:52:54.414Z,15.02
2022-09-01T14:55:23.967Z,14.70
2022-09-01T14:57:52.280Z,13.98
2022-09-01T15:00:21.142Z,15.05
2022-09-01T15:02:49.633Z,14.95
2022-09-01T15:05:17.615Z,14.77
2022-09-01T15:07:45.635Z,15.40
2022-09-01T15:10:24.252Z,15.00
2022-09-01T15:12:54.204Z,16.02
2022-09-01T15:15:22.261Z,15.02
2022-09-01T15:17:50.456Z,13.82
2022-09-01T15:20:35.879Z,14.45
2022-09-01T15:23:04.459Z,13.57
2022-09-01T15:25:33.990Z,14.52
2022-09-01T15:28:01.930Z,14.43
2022-09-01T15:30:29.859Z,12.40
2022-09-01T15:32:57.928Z,12.52
2022-09-01T15:35:25.834Z,12.38
2022-09-01T15:37:53.854Z,12.38
2022-09-01T15:40:21.896Z,13.00
2022-09-01T15:42:51.259Z,12.55
2022-09-01T15:45:21.770Z,12.40
2022-09-01T15:47:49.924Z,13.00
2022-09-01T15:50:21.931Z,11.40
2022-09-01T15:52:53.031Z,12.93
2022-09-01T15:55:23.001Z,12.80
2022-09-01T15:57:54.929Z,10.23
2022-09-01T16:00:25.235Z,10.25
2022-09-01T16:02:54.376Z,10.40
2022-09-01T16:05:22.501Z,10.38
2022-09-01T16:07:52.681Z,11.50
2022-09-01T16:10:21.659Z,10.45
2022-09-01T16:12:51.837Z,10.00
2022-09-01T16:15:23.626Z,9.23
2022-09-01T16:18:16.425Z,9.77
2022-09-01T16:20:55.053Z,10.15
2022-09-01T16:23:24.955Z,9.93
2022-09-01T16:25:54.438Z,11.00
2022-09-01T16:28:27.561Z,11.52
2022-09-01T16:31:03.369Z,9.55
2022-09-01T16:33:33.966Z,10.68
2022-09-01T16:36:18.198Z,10.45
2022-09-01T16:38:51.279Z,11.02
2022-09-01T16:41:41.087Z,11.15
2022-09-01T16:44:18.907Z,13.35
2022-09-01T16:46:56.706Z,13.70
2022-09-01T16:49:33.867Z,13.98
2022-09-01T16:52:05.640Z,14.25
2022-09-01T16:54:47.993Z,15.15
2022-09-01T16:57:24.645Z,14.18
2022-09-01T16:59:55.729Z,14.48
2022-09-01T17:02:38.483Z,14.35
2022-09-01T17:05:18.035Z,14.27
2022-09-01T17:07:52.783Z,15.25
2022-09-01T17:10:33.939Z,15.13
2022-09-01T17:13:15.836Z,14.23
2022-09-01T17:15:48.041Z,14.95
2022-09-01T17:18:23.191Z,22.15
2022-09-01T17:20:58.306Z,17.45
2022-09-01T17:23:31.963Z,18.67
2022-09-01T17:26:04.352Z,17.77
2022-09-01T17:28:36.690Z,15.20
2022-09-01T17:31:14.426Z,16.83
2022-09-01T17:34:01.899Z,17.05
2022-09-01T17:36:44.620Z,15.65
2022-09-01T17:39:27.004Z,15.02
2022-09-01T17:41:58.012Z,16.65
2022-09-01T17:44:35.870Z,18.08
2022-09-01T17:47:12.626Z,17.13
2022-09-01T17:49:52.044Z,15.95
2022-09-01T17:52:40.540Z,15.00
2022-09-01T17:55:14.832Z,16.42
2022-09-01T17:57:46.521Z,15.98
2022-09-01T18:00:24.319Z,16.10
2022-09-01T18:03:18.931Z,15.88
2022-09-01T18:06:00.414Z,15.07
2022-09-01T18:08:36.549Z,16.25
2022-09-01T18:11:11.519Z,15.95
2022-09-01T18:13:54.123Z,15.95
2022-09-01T18:16:26.425Z,15.05
2022-09-01T18:18:55.111Z,16.02
2022-09-01T18:21:30.745Z,15.88
2022-09-01T18:24:14.099Z,15.38
2022-09-01T18:26:46.083Z,14.38
2022-09-01T18:29:14.033Z,15.18
2022-09-01T18:32:05.866Z,15.55
2022-09-01T18:34:47.870Z,15.60
2022-09-01T18:37:25.329Z,14.77
2022-09-01T18:40:03.849Z,17.17
2022-09-01T18:42:37.319Z,16.40
2022-09-01T18:45:14.168Z,15.40
2022-09-01T18:47:51.269Z,15.40
2022-09-01T18:50:28.134Z,14.50
2022-09-01T18:53:14.770Z,14.73
2022-09-01T18:55:52.309Z,12.95
2022-09-01T18:58:38.421Z,14.18
2022-09-01T19:01:09.726Z,14.18
2022-09-01T19:03:43.357Z,14.48
2022-09-01T19:06:29.162Z,14.93
2022-09-01T19:09:10.892Z,15.20
2022-09-01T19:11:50.557Z,15.18
2022-09-01T19:14:30.242Z,14.77
2022-09-01T19:17:16.452Z,15.57
2022-09-01T19:19:50.256Z,16.48
2022-09-01T19:22:22.423Z,16.52
2022-09-01T19:25:18.434Z,16.00
2022-09-01T19:27:59.440Z,16.63
2022-09-01T19:30:27.457Z,15.65
2022-09-01T19:32:57.033Z,16.33
2022-09-01T19:35:25.970Z,14.80
2022-09-01T19:37:53.954Z,15.98
2022-09-01T19:40:29.539Z,15.93
2022-09-01T19:43:04.111Z,15.98
2022-09-01T19:45:46.165Z,15.75
2022-09-01T19:48:19.184Z,16.75
2022-09-01T19:50:51.661Z,17.25
2022-09-01T19:53:33.627Z,25.15
2022-09-01T19:56:08.752Z,21.35
2022-09-01T19:58:46.433Z,21.20
2022-09-01T20:01:19.149Z,18.35
2022-09-01T20:03:51.955Z,19.15
2022-09-01T20:06:32.323Z,21.43
2022-09-01T20:09:08.245Z,20.40
2022-09-01T20:11:47.295Z,20.50
2022-09-01T20:14:39.759Z,21.30
2022-09-01T20:17:09.877Z,20.60
2022-09-01T20:19:42.148Z,20.13
2022-09-01T20:22:24.490Z,20.37
2022-09-01T20:25:08.483Z,18.93
2022-09-01T20:27:47.909Z,16.37
2022-09-01T20:30:20.597Z,18.40
2022-09-01T20:32:56.432Z,17.80
2022-09-01T20:35:31.734Z,16.13
2022-09-01T20:38:04.317Z,17.97
2022-09-01T20:40:35.790Z,18.92
2022-09-01T20:43:18.477Z,18.20
2022-09-01T20:45:46.935Z,18.70
2022-09-01T20:48:16.361Z,16.73
2022-09-01T20:50:53.101Z,18.98
2022-09-01T20:53:34.253Z,17.07
2022-09-01T20:56:08.783Z,17.57
2022-09-01T20:58:43.780Z,16.60
2022-09-01T21:01:19.310Z,18.20
2022-09-01T21:03:58.011Z,17.20
2022-09-01T21:06:38.840Z,15.80
2022-09-01T21:09:13.372Z,16.40
2022-09-01T21:11:45.358Z,16.20
2022-09-01T21:14:31.772Z,16.10
2022-09-01T21:17:10.300Z,16.70
2022-09-01T21:19:49.753Z,15.63
2022-09-01T21:22:22.149Z,16.03
2022-09-01T21:24:50.990Z,16.70
2022-09-01T21:27:22.682Z,16.83
2022-09-01T21:29:56.767Z,17.83
2022-09-01T21:32:25.297Z,17.03
2022-09-01T21:34:54.145Z,18.23
2022-09-01T21:37:23.767Z,20.20
2022-09-01T21:39:53.508Z,20.43
2022-09-01T21:42:23.323Z,19.47
2022-09-01T21:44:51.760Z,19.60
2022-09-01T21:47:23.845Z,19.40
2022-09-01T21:49:51.755Z,19.30
2022-09-01T21:52:19.754Z,19.40
2022-09-01T21:54:48.491Z,18.57
2022-09-01T21:57:16.654Z,17.77
2022-09-01T21:59:44.733Z,18.10
2022-09-01T22:02:13.027Z,16.90
2022-09-01T22:04:42.367Z,17.67
2022-09-01T22:07:16.619Z,18.70
2022-09-01T22:09:44.516Z,19.03
2022-09-01T22:12:12.445Z,17.70
2022-09-01T22:14:40.337Z,18.40
2022-09-01T22:17:08.293Z,17.67
2022-09-01T22:19:36.526Z,17.20
2022-09-01T22:22:06.613Z,16.63
2022-09-01T22:24:34.516Z,16.87
2022-09-01T22:27:02.383Z,17.37
2022-09-01T22:29:30.328Z,17.30
2022-09-01T22:32:00.226Z,16.17
2022-09-01T22:34:28.102Z,16.90
2022-09-01T22:36:55.963Z,15.93
2022-09-01T22:39:25.805Z,16.17
2022-09-01T22:41:54.998Z,16.40
2022-09-01T22:44:22.984Z,15.93
2022-09-01T22:46:50.947Z,16.07
2022-09-01T22:49:18.884Z,16.70
2022-09-01T22:51:46.914Z,16.10
2022-09-01T22:54:14.950Z,16.57
2022-09-01T22:56:45.188Z,16.90
2022-09-01T22:59:15.439Z,17.00
2022-09-01T23:01:46.441Z,16.90
2022-09-01T23:04:16.476Z,17.33
2022-09-01T23:06:48.278Z,17.30
2022-09-01T23:09:17.173Z,17.67
2022-09-01T23:11:46.861Z,17.33
2022-09-01T23:14:15.051Z,18.10
2022-09-01T23:16:43.040Z,17.03
2022-09-01T23:19:11.035Z,17.60
2022-09-01T23:21:40.100Z,17.87
2022-09-01T23:24:08.384Z,16.43
2022-09-01T23:26:37.239Z,17.23
2022-09-01T23:29:07.666Z,16.83
2022-09-01T23:31:37.991Z,16.37
2022-09-01T23:34:07.132Z,16.50
2022-09-01T23:36:35.596Z,16.20
2022-09-01T23:39:03.564Z,16.27
2022-09-01T23:41:34.540Z,16.30
2022-09-01T23:44:04.691Z,16.00
2022-09-01T23:46:36.977Z,16.43
2022-09-01T23:49:06.011Z,16.30
2022-09-01T23:51:34.254Z,16.13
2022-09-01T23:54:02.385Z,16.03
2022-09-01T23:56:31.240Z,17.27
2022-09-01T23:59:00.282Z,17.03
